Time;durP1;ratioP1;P1;durP2;ratioP2;P2;SDS_P1;SDS_P2;PMS_P1;PMS_P2;Temp;Humidity;BMP_temperature;BMP_pressure;BME280_temperature;BME280_humidity;BME280_pressure;Samples;Min_cycle;Max_cycle;Signal;HPM_P1;HPM_P2
2024/02/11 00:01:35;;;;;;;19.42;14.43;;;10.20;95.90;;;;;;4995527;28;20525;-80
2024/02/11 00:04:02;;;;;;;21.15;16.33;;;10.10;95.90;;;;;;4989728;28;20041;-80
2024/02/11 00:06:28;;;;;;;19.38;15.43;;;10.10;96.10;;;;;;4996079;28;20111;-80
2024/02/11 00:08:53;;;;;;;19.65;15.18;;;10.10;96.30;;;;;;4991512;28;20070;-80
2024/02/11 00:11:19;;;;;;;19.92;15.63;;;10.10;96.30;;;;;;4995064;28;20442;-80
2024/02/11 00:13:45;;;;;;;19.65;15.07;;;10.00;96.30;;;;;;4987807;28;20065;-81
2024/02/11 00:16:11;;;;;;;19.88;15.05;;;10.00;96.30;;;;;;4994017;28;20114;-80
2024/02/11 00:18:37;;;;;;;18.60;14.43;;;9.90;96.40;;;;;;4988233;28;20182;-80
2024/02/11 00:21:04;;;;;;;19.50;13.50;;;9.90;96.40;;;;;;4993988;28;21912;-80
2024/02/11 00:23:30;;;;;;;16.08;11.88;;;9.90;96.50;;;;;;4988080;28;20080;-81
2024/02/11 00:25:56;;;;;;;16.77;12.27;;;9.90;96.40;;;;;;4990778;28;20603;-80
2024/02/11 00:28:22;;;;;;;14.80;10.90;;;9.80;96.50;;;;;;4995773;28;20033;-80
2024/02/11 00:30:50;;;;;;;16.35;11.75;;;9.80;96.40;;;;;;4990903;28;20452;-79
2024/02/11 00:33:19;;;;;;;15.45;11.70;;;9.70;96.40;;;;;;4992484;28;20089;-79
2024/02/11 00:35:46;;;;;;;16.65;12.20;;;9.70;96.60;;;;;;4988345;28;20058;-81
2024/02/11 00:38:13;;;;;;;17.10;12.93;;;9.80;96.60;;;;;;4993381;28;20025;-80
2024/02/11 00:40:39;;;;;;;16.65;12.15;;;9.70;96.50;;;;;;4988181;28;20054;-80
2024/02/11 00:43:07;;;;;;;19.50;12.20;;;9.70;96.50;;;;;;4995147;28;20109;-81
2024/02/11 00:45:33;;;;;;;15.20;10.82;;;9.80;96.60;;;;;;4993176;28;20037;-81
2024/02/11 00:48:03;;;;;;;13.45;11.15;;;9.70;96.50;;;;;;4994415;28;20022;-80
2024/02/11 00:50:31;;;;;;;13.23;10.45;;;9.70;96.50;;;;;;4996403;28;20037;-81
2024/02/11 00:52:57;;;;;;;14.73;9.70;;;9.80;96.60;;;;;;4994238;28;20049;-81
2024/02/11 00:55:23;;;;;;;13.50;9.70;;;9.70;96.60;;;;;;4991020;28;20205;-81
2024/02/11 00:57:49;;;;;;;15.70;9.38;;;9.70;96.50;;;;;;4991309;28;20022;-81
2024/02/11 01:00:16;;;;;;;13.43;9.10;;;9.70;96.50;;;;;;4995867;28;20553;-81
2024/02/11 01:02:43;;;;;;;14.70;8.65;;;9.70;96.50;;;;;;4994966;28;20022;-81
2024/02/11 01:05:10;;;;;;;17.13;9.68;;;9.80;96.50;;;;;;4983738;28;20033;-80
2024/02/11 01:07:40;;;;;;;13.85;9.77;;;9.70;96.30;;;;;;5005977;28;20366;-81
2024/02/11 01:10:13;;;;;;;15.00;9.27;;;9.70;96.40;;;;;;4991430;28;20062;-81
2024/02/11 01:12:44;;;;;;;19.50;10.57;;;9.70;96.30;;;;;;4990216;28;20279;-80
2024/02/11 01:15:16;;;;;;;15.48;10.00;;;9.60;96.20;;;;;;4990673;28;20034;-80
2024/02/11 01:17:43;;;;;;;19.38;12.18;;;9.60;96.30;;;;;;4995105;28;20050;-79
2024/02/11 01:20:10;;;;;;;18.70;12.77;;;9.60;96.30;;;;;;4994259;28;20042;-80
2024/02/11 01:22:38;;;;;;;23.60;14.82;;;9.60;96.30;;;;;;4993659;28;20081;-78
2024/02/11 01:25:04;;;;;;;23.52;14.43;;;9.70;96.20;;;;;;4994018;28;20125;-81
2024/02/11 01:27:30;;;;;;;22.98;14.57;;;9.60;96.30;;;;;;4984653;28;20625;-81
2024/02/11 01:29:56;;;;;;;24.38;15.80;;;9.60;96.30;;;;;;4997082;28;20105;-80
2024/02/11 01:32:23;;;;;;;20.38;14.25;;;9.60;96.30;;;;;;4987872;28;20051;-78
2024/02/11 01:34:49;;;;;;;21.08;14.80;;;9.60;96.40;;;;;;4988487;28;20122;-79
2024/02/11 01:37:15;;;;;;;21.70;14.48;;;9.70;96.30;;;;;;4991596;28;20495;-82
2024/02/11 01:39:41;;;;;;;21.92;13.40;;;9.60;96.30;;;;;;4993670;28;20030;-81
2024/02/11 01:42:06;;;;;;;23.58;12.93;;;9.60;96.20;;;;;;4993714;28;20033;-80
2024/02/11 01:44:32;;;;;;;23.42;13.38;;;9.60;96.20;;;;;;4993220;28;20030;-79
2024/02/11 01:46:58;;;;;;;20.83;12.15;;;9.60;96.20;;;;;;4997786;28;20026;-81
2024/02/11 01:49:24;;;;;;;17.90;11.88;;;9.60;96.30;;;;;;4994709;28;20505;-81
2024/02/11 01:51:51;;;;;;;19.17;11.80;;;9.60;96.30;;;;;;4999943;28;20018;-80
2024/02/11 01:54:19;;;;;;;19.58;11.60;;;9.60;96.20;;;;;;4992163;28;20045;-81
2024/02/11 01:56:48;;;;;;;18.25;11.38;;;9.50;96.20;;;;;;4997678;28;20132;-80
2024/02/11 01:59:14;;;;;;;18.65;10.77;;;9.50;96.20;;;;;;4998790;28;20045;-80
2024/02/11 02:01:40;;;;;;;19.45;11.25;;;9.50;96.20;;;;;;5011325;28;20734;-80
2024/02/11 02:04:06;;;;;;;21.90;11.55;;;9.50;96.30;;;;;;5007458;28;20042;-81
2024/02/11 02:06:33;;;;;;;21.35;12.32;;;9.50;96.30;;;;;;5000161;28;20029;-80
2024/02/11 02:09:00;;;;;;;18.42;12.35;;;9.50;96.30;;;;;;4997115;28;20559;-80
2024/02/11 02:11:27;;;;;;;17.67;11.45;;;9.50;96.20;;;;;;4991162;28;20115;-80
2024/02/11 02:13:53;;;;;;;18.75;11.80;;;9.50;96.30;;;;;;4994711;28;20052;-81
2024/02/11 02:16:22;;;;;;;23.63;12.73;;;9.50;96.30;;;;;;4996131;28;20022;-80
2024/02/11 02:18:51;;;;;;;21.17;15.20;;;9.50;96.30;;;;;;4992881;28;20033;-81
2024/02/11 02:21:21;;;;;;;23.65;16.17;;;9.50;96.40;;;;;;4995643;28;20125;-79
2024/02/11 02:23:47;;;;;;;25.50;17.65;;;9.50;96.40;;;;;;4991573;28;20571;-80
2024/02/11 02:26:14;;;;;;;26.33;17.88;;;9.50;96.40;;;;;;4998276;28;20036;-79
2024/02/11 02:28:39;;;;;;;27.02;18.23;;;9.50;96.30;;;;;;4996692;28;20014;-79
2024/02/11 02:31:07;;;;;;;25.67;16.67;;;9.50;96.30;;;;;;4997303;28;20393;-79
2024/02/11 02:33:33;;;;;;;20.90;13.68;;;9.50;96.30;;;;;;4996443;28;20026;-79
2024/02/11 02:35:58;;;;;;;20.90;13.70;;;9.50;96.30;;;;;;4995380;28;20471;-80
2024/02/11 02:38:24;;;;;;;21.73;12.40;;;9.50;96.30;;;;;;4993883;28;20026;-80
2024/02/11 02:40:51;;;;;;;17.77;11.93;;;9.50;96.30;;;;;;4995714;28;20465;-79
2024/02/11 02:43:17;;;;;;;18.98;10.48;;;9.50;96.30;;;;;;4993758;28;20165;-80
2024/02/11 02:45:43;;;;;;;17.35;11.45;;;9.50;96.30;;;;;;4990829;28;20057;-80
2024/02/11 02:48:08;;;;;;;17.17;11.55;;;9.50;96.20;;;;;;4993895;28;20023;-79
2024/02/11 02:50:34;;;;;;;15.82;9.43;;;9.50;96.20;;;;;;4992783;28;20125;-81
2024/02/11 02:53:00;;;;;;;15.80;10.18;;;9.50;96.20;;;;;;4997938;28;20033;-81
2024/02/11 02:55:26;;;;;;;18.05;9.63;;;9.50;96.20;;;;;;4993891;28;20034;-80
2024/02/11 02:57:51;;;;;;;14.00;8.70;;;9.50;96.10;;;;;;4991696;28;20045;-82
2024/02/11 03:00:21;;;;;;;16.88;8.57;;;9.40;96.00;;;;;;4995973;28;20042;-81
2024/02/11 03:02:52;;;;;;;12.77;7.68;;;9.40;96.00;;;;;;4992086;28;20029;-80
2024/02/11 03:05:18;;;;;;;15.23;7.80;;;9.40;96.00;;;;;;4995038;28;20315;-80
2024/02/11 03:07:44;;;;;;;16.23;8.35;;;9.40;96.00;;;;;;4999317;28;20549;-82
2024/02/11 03:10:16;;;;;;;16.85;8.05;;;9.30;96.00;;;;;;4998128;28;20026;-82
2024/02/11 03:12:42;;;;;;;15.70;7.88;;;9.40;95.90;;;;;;4992529;28;20029;-81
2024/02/11 03:15:10;;;;;;;18.23;7.93;;;9.40;95.80;;;;;;4989832;28;20029;-79
2024/02/11 03:17:36;;;;;;;15.68;6.65;;;9.30;95.80;;;;;;4994980;28;20087;-80
2024/02/11 03:20:02;;;;;;;18.38;6.70;;;9.30;95.70;;;;;;4993644;28;20438;-81
2024/02/11 03:22:28;;;;;;;16.30;6.70;;;9.30;95.60;;;;;;4995053;28;20018;-80
2024/02/11 03:24:54;;;;;;;15.07;5.90;;;9.20;95.40;;;;;;4994160;28;20391;-80
2024/02/11 03:27:23;;;;;;;17.90;5.88;;;9.20;95.30;;;;;;4993182;28;20036;-82
2024/02/11 03:29:49;;;;;;;16.17;5.47;;;9.10;95.40;;;;;;4994610;28;20080;-81
2024/02/11 03:32:15;;;;;;;17.23;5.95;;;9.20;95.40;;;;;;4993760;28;20487;-80
2024/02/11 03:34:40;;;;;;;13.25;4.78;;;9.10;95.30;;;;;;4994140;28;20030;-81
2024/02/11 03:37:06;;;;;;;14.45;4.65;;;9.10;95.20;;;;;;4992773;28;20034;-81
2024/02/11 03:39:32;;;;;;;16.02;4.80;;;9.10;95.10;;;;;;4995727;28;20475;-81
2024/02/11 03:41:57;;;;;;;12.52;4.10;;;9.10;95.00;;;;;;4994642;28;20017;-82
2024/02/11 03:44:24;;;;;;;16.02;3.60;;;9.00;95.00;;;;;;4996515;28;20026;-79
2024/02/11 03:46:50;;;;;;;19.25;5.00;;;9.10;95.00;;;;;;4991951;28;20019;-81
2024/02/11 03:49:16;;;;;;;14.45;4.43;;;9.00;94.80;;;;;;4996066;28;20034;-81
2024/02/11 03:51:41;;;;;;;16.10;4.07;;;9.00;94.80;;;;;;4995887;28;20128;-81
2024/02/11 03:54:07;;;;;;;16.98;5.20;;;9.00;94.70;;;;;;4989842;28;20477;-82
2024/02/11 03:56:34;;;;;;;17.42;4.60;;;9.00;94.80;;;;;;4997734;28;20079;-81
2024/02/11 03:58:59;;;;;;;16.13;4.18;;;9.00;94.60;;;;;;4994711;28;20057;-81
2024/02/11 04:01:27;;;;;;;14.07;3.85;;;9.00;94.50;;;;;;4989143;28;20072;-80
2024/02/11 04:03:53;;;;;;;13.27;3.97;;;9.00;94.50;;;;;;4994994;28;20034;-80
2024/02/11 04:06:20;;;;;;;17.73;4.15;;;9.00;94.40;;;;;;4994692;28;20029;-81
2024/02/11 04:08:49;;;;;;;13.18;3.55;;;8.90;94.50;;;;;;4995201;28;20048;-80
2024/02/11 04:11:17;;;;;;;14.80;3.88;;;8.90;94.50;;;;;;4990693;28;20432;-81
2024/02/11 04:13:43;;;;;;;14.55;4.05;;;8.90;94.60;;;;;;4995180;28;20530;-81
2024/02/11 04:16:15;;;;;;;17.77;4.28;;;9.00;94.60;;;;;;4993715;28;20018;-81
2024/02/11 04:18:47;;;;;;;16.50;4.25;;;9.00;94.50;;;;;;4988490;28;20010;-81
2024/02/11 04:21:15;;;;;;;10.57;3.42;;;8.90;94.50;;;;;;4991301;28;20030;-81
2024/02/11 04:23:41;;;;;;;16.05;4.30;;;8.90;94.50;;;;;;4993447;28;20113;-81
2024/02/11 04:26:07;;;;;;;14.18;4.18;;;8.90;94.50;;;;;;4993969;28;20554;-81
2024/02/11 04:28:37;;;;;;;12.75;4.05;;;8.90;94.50;;;;;;4995093;28;20018;-80
2024/02/11 04:31:04;;;;;;;16.80;4.07;;;8.90;94.50;;;;;;4990854;28;20037;-82
2024/02/11 04:33:30;;;;;;;17.83;4.60;;;8.90;94.60;;;;;;4994947;28;20666;-81
2024/02/11 04:35:58;;;;;;;18.83;5.05;;;8.80;94.60;;;;;;4989868;28;20470;-81
2024/02/11 04:38:24;;;;;;;14.95;4.70;;;8.80;94.60;;;;;;4992225;28;20030;-81
2024/02/11 04:40:51;;;;;;;13.82;4.28;;;8.80;94.70;;;;;;4995457;28;20440;-82
2024/02/11 04:43:17;;;;;;;13.57;4.45;;;8.80;94.70;;;;;;4991640;28;20030;-82
2024/02/11 04:45:43;;;;;;;13.07;4.80;;;8.80;94.70;;;;;;4991604;28;20064;-82
2024/02/11 04:48:10;;;;;;;20.40;5.22;;;8.80;94.70;;;;;;4991512;28;20056;-82
2024/02/11 04:50:36;;;;;;;14.02;4.45;;;8.70;94.70;;;;;;4993330;28;20053;-82
2024/02/11 04:53:02;;;;;;;17.20;4.97;;;8.80;94.80;;;;;;5001021;28;20018;-82
2024/02/11 04:55:39;;;;;;;12.70;4.97;;;8.80;94.80;;;;;;4992482;28;20038;-83
2024/02/11 04:58:11;;;;;;;20.33;5.85;;;8.70;94.80;;;;;;4987945;28;20327;-82
2024/02/11 05:00:37;;;;;;;14.13;4.75;;;8.70;94.90;;;;;;4996598;28;20042;-82
2024/02/11 05:03:03;;;;;;;19.42;5.50;;;8.70;94.90;;;;;;4985764;28;20257;-81
2024/02/11 05:05:30;;;;;;;21.80;5.82;;;8.70;95.00;;;;;;5010173;28;20319;-82
2024/02/11 05:08:03;;;;;;;16.05;5.80;;;8.70;95.10;;;;;;4992998;28;20042;-83
2024/02/11 05:10:34;;;;;;;15.45;5.85;;;8.70;95.20;;;;;;4992146;28;20045;-82
2024/02/11 05:13:05;;;;;;;13.52;5.72;;;8.70;95.10;;;;;;4997651;28;20032;-82
2024/02/11 05:15:38;;;;;;;18.23;6.07;;;8.70;95.20;;;;;;4999097;28;20046;-83
2024/02/11 05:18:04;;;;;;;17.63;7.00;;;8.70;95.20;;;;;;4996290;28;20032;-82
2024/02/11 05:20:31;;;;;;;16.67;7.18;;;8.80;95.10;;;;;;4996619;28;20099;-81
2024/02/11 05:22:58;;;;;;;18.27;7.28;;;8.70;95.20;;;;;;5000343;28;20033;-83
2024/02/11 05:25:29;;;;;;;19.45;8.15;;;8.70;95.30;;;;;;4995574;28;20558;-82
2024/02/11 05:27:56;;;;;;;18.77;7.63;;;8.70;95.30;;;;;;4994394;28;20380;-81
2024/02/11 05:30:23;;;;;;;19.02;8.35;;;8.70;95.30;;;;;;4999364;28;20045;-82
2024/02/11 05:32:50;;;;;;;23.52;8.23;;;8.70;95.30;;;;;;4998638;28;20030;-82
2024/02/11 05:35:17;;;;;;;15.68;7.85;;;8.70;95.30;;;;;;5000432;28;20073;-81
2024/02/11 05:37:46;;;;;;;19.35;8.00;;;8.70;95.20;;;;;;5005343;28;20109;-82
2024/02/11 05:40:13;;;;;;;23.25;8.57;;;8.70;95.30;;;;;;4994543;28;20033;-82
2024/02/11 05:42:40;;;;;;;19.58;9.20;;;8.80;95.20;;;;;;4997159;28;20069;-81
2024/02/11 05:45:07;;;;;;;22.05;10.10;;;8.80;95.30;;;;;;4996841;28;20448;-82
2024/02/11 05:47:33;;;;;;;23.08;9.38;;;8.80;95.30;;;;;;4995939;28;20116;-82
2024/02/11 05:49:59;;;;;;;21.75;9.15;;;8.70;95.30;;;;;;4996924;28;20129;-81
2024/02/11 05:52:25;;;;;;;23.17;9.25;;;8.70;95.30;;;;;;4994860;28;20018;-82
2024/02/11 05:54:51;;;;;;;22.45;9.60;;;8.70;95.30;;;;;;4995574;28;20061;-82
2024/02/11 05:57:17;;;;;;;17.08;9.30;;;8.70;95.40;;;;;;4995485;28;20125;-80
2024/02/11 05:59:42;;;;;;;22.85;9.73;;;8.70;95.40;;;;;;4996877;28;20397;-80
2024/02/11 06:02:09;;;;;;;20.27;9.85;;;8.70;95.40;;;;;;4997159;28;20022;-79
2024/02/11 06:04:34;;;;;;;23.73;9.73;;;8.70;95.30;;;;;;5003133;28;20423;-80
2024/02/11 06:07:00;;;;;;;23.60;9.95;;;8.70;95.30;;;;;;4996772;28;20018;-83
2024/02/11 06:09:25;;;;;;;26.48;9.95;;;8.70;95.30;;;;;;4991135;28;20066;-81
2024/02/11 06:11:53;;;;;;;20.13;9.52;;;8.70;95.40;;;;;;4997418;28;20041;-82
2024/02/11 06:14:19;;;;;;;28.60;10.52;;;8.70;95.40;;;;;;4996368;28;20552;-82
2024/02/11 06:16:45;;;;;;;23.33;10.27;;;8.70;95.30;;;;;;4995221;28;20034;-82
2024/02/11 06:19:10;;;;;;;21.13;9.80;;;8.70;95.30;;;;;;4994943;28;20406;-80
2024/02/11 06:21:36;;;;;;;21.75;10.32;;;8.70;95.30;;;;;;4998809;28;20992;-80
2024/02/11 06:24:05;;;;;;;21.63;9.45;;;8.70;95.30;;;;;;4994493;28;20115;-81
2024/02/11 06:26:30;;;;;;;26.67;10.50;;;8.70;95.40;;;;;;4997662;28;20021;-81
2024/02/11 06:28:58;;;;;;;23.58;10.07;;;8.70;95.30;;;;;;5020649;28;20038;-81
2024/02/11 06:31:24;;;;;;;18.58;9.55;;;8.80;95.40;;;;;;5010721;28;20072;-84
2024/02/11 06:33:50;;;;;;;27.48;9.70;;;8.80;95.30;;;;;;5013608;28;20366;-83
2024/02/11 06:36:16;;;;;;;21.67;10.85;;;8.70;95.30;;;;;;5008279;28;20050;-79
2024/02/11 06:38:43;;;;;;;28.08;9.90;;;8.70;95.40;;;;;;5001385;28;20041;-83
2024/02/11 06:41:09;;;;;;;28.75;10.73;;;8.80;95.30;;;;;;5010111;28;20029;-83
2024/02/11 06:43:35;;;;;;;29.02;10.60;;;8.80;95.30;;;;;;5006663;28;20029;-82
2024/02/11 06:46:03;;;;;;;24.33;10.13;;;8.70;95.30;;;;;;5008578;28;20018;-83
2024/02/11 06:48:29;;;;;;;27.17;10.45;;;8.70;95.30;;;;;;5006785;28;20057;-80
2024/02/11 06:50:54;;;;;;;21.48;10.50;;;8.70;95.20;;;;;;5001472;28;20156;-82
2024/02/11 06:53:20;;;;;;;20.52;9.77;;;8.70;95.30;;;;;;5007880;28;20056;-82
2024/02/11 06:55:47;;;;;;;22.58;10.13;;;8.70;95.30;;;;;;5006307;28;20054;-82
2024/02/11 06:58:13;;;;;;;24.67;10.32;;;8.70;95.30;;;;;;5011691;28;20091;-81
2024/02/11 07:00:38;;;;;;;23.73;10.13;;;8.70;95.40;;;;;;5008064;28;20531;-83
2024/02/11 07:03:05;;;;;;;21.90;10.60;;;8.80;95.40;;;;;;5008369;28;20022;-82
2024/02/11 07:05:30;;;;;;;25.00;10.35;;;8.70;95.40;;;;;;5006157;28;20037;-82
2024/02/11 07:07:59;;;;;;;23.95;10.65;;;8.80;95.30;;;;;;5011689;28;20043;-82
2024/02/11 07:10:26;;;;;;;27.90;11.15;;;8.80;95.40;;;;;;5014134;28;20203;-83
2024/02/11 07:12:51;;;;;;;24.80;10.55;;;8.80;95.40;;;;;;4991528;28;20416;-83
2024/02/11 07:15:19;;;;;;;25.77;10.02;;;8.80;95.40;;;;;;4987814;28;20044;-82
2024/02/11 07:17:44;;;;;;;24.10;9.18;;;8.80;95.40;;;;;;4999271;28;20022;-82
2024/02/11 07:20:14;;;;;;;22.92;10.85;;;8.80;95.40;;;;;;4994130;28;20406;-83
2024/02/11 07:22:43;;;;;;;24.58;9.98;;;8.80;95.40;;;;;;4997977;28;20477;-83
2024/02/11 07:25:09;;;;;;;20.85;9.95;;;8.90;95.40;;;;;;4995526;28;20042;-81
2024/02/11 07:27:35;;;;;;;27.38;9.48;;;8.90;95.40;;;;;;4996732;28;20033;-81
2024/02/11 07:30:01;;;;;;;27.02;10.02;;;8.90;95.40;;;;;;4995309;28;20037;-82
2024/02/11 07:32:28;;;;;;;23.58;9.40;;;8.90;95.40;;;;;;4989779;28;20033;-81
2024/02/11 07:34:56;;;;;;;29.25;9.73;;;8.90;95.40;;;;;;4993545;28;20798;-81
2024/02/11 07:37:23;;;;;;;21.30;9.40;;;8.90;95.40;;;;;;4996324;28;20045;-81
2024/02/11 07:39:49;;;;;;;27.20;9.98;;;8.90;95.40;;;;;;4995919;28;20022;-81
2024/02/11 07:42:15;;;;;;;23.98;10.23;;;8.90;95.50;;;;;;4992977;28;20341;-81
2024/02/11 07:44:41;;;;;;;23.73;9.98;;;8.90;95.50;;;;;;4994188;28;20088;-79
2024/02/11 07:47:07;;;;;;;18.45;9.43;;;8.90;95.50;;;;;;4991911;28;20022;-80
2024/02/11 07:49:36;;;;;;;25.95;9.77;;;9.00;95.60;;;;;;4992524;28;20073;-81
2024/02/11 07:52:02;;;;;;;24.38;9.13;;;9.00;95.50;;;;;;4993803;28;20044;-83
2024/02/11 07:54:28;;;;;;;26.80;10.70;;;9.00;95.40;;;;;;4988833;28;20374;-81
2024/02/11 07:56:54;;;;;;;24.77;9.40;;;9.00;95.40;;;;;;4992739;28;20294;-81
2024/02/11 07:59:20;;;;;;;25.42;9.43;;;9.10;95.40;;;;;;4996282;28;20545;-80
2024/02/11 08:01:45;;;;;;;19.92;9.82;;;9.10;95.30;;;;;;4991062;28;20034;-83
2024/02/11 08:04:12;;;;;;;28.67;10.02;;;9.10;95.30;;;;;;4990408;28;20022;-82
2024/02/11 08:06:39;;;;;;;22.08;8.63;;;9.10;95.20;;;;;;4988861;28;20479;-81
2024/02/11 08:09:09;;;;;;;25.83;10.68;;;9.20;95.10;;;;;;4994780;28;20412;-81
2024/02/11 08:11:38;;;;;;;25.98;9.93;;;9.10;95.10;;;;;;4993656;28;20025;-82
2024/02/11 08:14:04;;;;;;;23.30;9.00;;;9.20;95.10;;;;;;4992177;28;20550;-81
2024/02/11 08:16:30;;;;;;;24.20;9.77;;;9.20;95.00;;;;;;4993641;28;20091;-82
2024/02/11 08:18:56;;;;;;;22.27;9.88;;;9.20;95.10;;;;;;4988803;28;20113;-81
2024/02/11 08:21:21;;;;;;;32.08;10.55;;;9.20;95.10;;;;;;4994099;28;20120;-82
2024/02/11 08:23:47;;;;;;;30.13;9.80;;;9.20;95.00;;;;;;4994336;28;20347;-82
2024/02/11 08:26:13;;;;;;;21.83;8.98;;;9.20;95.00;;;;;;4991295;28;20050;-82
2024/02/11 08:28:38;;;;;;;21.63;9.23;;;9.20;95.10;;;;;;4993651;28;20116;-83
2024/02/11 08:31:04;;;;;;;28.95;10.20;;;9.40;95.20;;;;;;4990373;28;20068;-82
2024/02/11 08:33:30;;;;;;;23.90;9.55;;;9.50;95.10;;;;;;4994216;28;20489;-81
2024/02/11 08:35:56;;;;;;;20.13;9.75;;;9.60;94.90;;;;;;4992237;28;20042;-82
2024/02/11 08:38:22;;;;;;;17.88;8.18;;;9.70;94.70;;;;;;4988930;28;20034;-81
2024/02/11 08:40:48;;;;;;;20.77;8.95;;;9.70;94.50;;;;;;4991352;28;20045;-81
2024/02/11 08:43:13;;;;;;;25.98;9.70;;;9.70;94.50;;;;;;5004179;28;20363;-84
2024/02/11 08:45:39;;;;;;;21.60;8.80;;;9.80;94.40;;;;;;5011727;28;20096;-84
2024/02/11 08:48:05;;;;;;;19.58;8.80;;;9.80;94.20;;;;;;5013904;28;20056;-84
2024/02/11 08:50:31;;;;;;;22.50;9.20;;;9.90;94.20;;;;;;5014198;28;20033;-84
2024/02/11 08:52:57;;;;;;;19.77;9.57;;;10.00;94.10;;;;;;5011813;28;20021;-84
2024/02/11 08:55:23;;;;;;;23.52;9.45;;;10.00;93.90;;;;;;5004292;28;20026;-84
2024/02/11 08:57:48;;;;;;;19.13;8.15;;;10.00;93.80;;;;;;5008012;28;20428;-84
2024/02/11 09:00:16;;;;;;;21.70;9.20;;;9.90;93.80;;;;;;5011409;28;20466;-84
2024/02/11 09:02:42;;;;;;;21.05;8.25;;;9.90;94.00;;;;;;5008903;28;20025;-84
2024/02/11 09:05:08;;;;;;;21.85;10.02;;;10.00;94.10;;;;;;5004393;28;20037;-83
2024/02/11 09:07:34;;;;;;;23.17;8.63;;;10.10;94.20;;;;;;5011308;28;20065;-79
2024/02/11 09:10:02;;;;;;;22.05;8.23;;;10.10;93.90;;;;;;5003527;28;20026;-84
2024/02/11 09:12:29;;;;;;;24.23;8.57;;;10.10;93.90;;;;;;5012093;28;20022;-84
2024/02/11 09:14:56;;;;;;;22.02;8.50;;;10.20;93.60;;;;;;5003499;28;20121;-84
2024/02/11 09:17:22;;;;;;;20.15;8.43;;;10.20;93.50;;;;;;4996788;28;20029;-84
2024/02/11 09:19:48;;;;;;;25.45;8.30;;;10.30;93.50;;;;;;5008437;28;20026;-84
2024/02/11 09:22:13;;;;;;;17.88;7.43;;;10.30;93.40;;;;;;5012722;28;20014;-84
2024/02/11 09:24:39;;;;;;;20.45;7.72;;;10.40;93.30;;;;;;4998038;28;20033;-75
2024/02/11 09:27:07;;;;;;;22.77;8.43;;;10.40;93.00;;;;;;5005158;28;20026;-74
2024/02/11 09:29:33;;;;;;;19.00;7.22;;;10.30;93.00;;;;;;5010908;28;20095;-74
2024/02/11 09:31:59;;;;;;;23.40;7.63;;;10.30;93.00;;;;;;5010144;28;20092;-74
2024/02/11 09:34:25;;;;;;;21.95;7.82;;;10.40;93.00;;;;;;4988527;28;20092;-78
2024/02/11 09:36:53;;;;;;;19.25;6.93;;;10.30;92.80;;;;;;4998097;28;20554;-75
2024/02/11 09:39:19;;;;;;;22.65;7.15;;;10.40;92.70;;;;;;4995172;28;20040;-75
2024/02/11 09:41:45;;;;;;;18.40;7.38;;;10.40;92.70;;;;;;4995503;28;20046;-76
2024/02/11 09:44:13;;;;;;;18.15;6.78;;;10.40;92.70;;;;;;4995412;28;20120;-75
2024/02/11 09:46:41;;;;;;;25.23;7.65;;;10.40;92.70;;;;;;4998025;28;20022;-74
2024/02/11 09:49:09;;;;;;;19.55;7.68;;;10.40;92.80;;;;;;4998527;28;20049;-75
2024/02/11 09:51:34;;;;;;;19.48;7.45;;;10.40;92.80;;;;;;4994962;28;20762;-79
2024/02/11 09:54:05;;;;;;;22.17;8.13;;;10.40;92.80;;;;;;4994879;28;20026;-77
2024/02/11 09:56:31;;;;;;;21.13;8.52;;;10.40;92.70;;;;;;5000052;28;20461;-76
2024/02/11 09:58:57;;;;;;;22.02;9.18;;;10.50;92.60;;;;;;4991127;28;20042;-74
2024/02/11 10:01:23;;;;;;;31.48;16.77;;;10.60;92.70;;;;;;4992185;28;20052;-75
2024/02/11 10:03:57;;;;;;;24.92;12.57;;;10.60;92.40;;;;;;4996491;28;20020;-75
2024/02/11 10:06:33;;;;;;;23.30;12.00;;;10.60;92.20;;;;;;4996704;28;20104;-74
2024/02/11 10:08:58;;;;;;;19.40;7.72;;;10.70;92.10;;;;;;4994998;28;20472;-77
2024/02/11 10:11:26;;;;;;;18.60;7.85;;;10.70;92.00;;;;;;4995767;28;20473;-74
2024/02/11 10:13:57;;;;;;;17.50;6.88;;;10.80;91.70;;;;;;4997346;28;20253;-76
2024/02/11 10:16:23;;;;;;;16.92;6.28;;;10.70;91.60;;;;;;4996057;28;20293;-76
2024/02/11 10:18:50;;;;;;;18.77;6.53;;;10.80;91.60;;;;;;4993463;28;20079;-74
2024/02/11 10:21:16;;;;;;;17.65;6.07;;;10.80;91.40;;;;;;4998957;28;20034;-77
2024/02/11 10:23:44;;;;;;;15.73;6.25;;;10.80;91.10;;;;;;4995148;28;20025;-75
2024/02/11 10:26:11;;;;;;;17.38;5.88;;;10.90;91.00;;;;;;4998018;28;20482;-75
2024/02/11 10:28:39;;;;;;;15.35;6.00;;;11.00;91.00;;;;;;4992888;28;20023;-77
2024/02/11 10:31:05;;;;;;;21.58;8.38;;;11.00;90.60;;;;;;4997497;28;20053;-75
2024/02/11 10:33:32;;;;;;;17.70;6.78;;;11.10;90.70;;;;;;4994349;28;20021;-76
2024/02/11 10:36:04;;;;;;;17.30;6.80;;;11.20;90.50;;;;;;4993490;28;20125;-77
2024/02/11 10:38:30;;;;;;;15.85;5.95;;;11.30;90.10;;;;;;5007277;28;20129;-74
2024/02/11 10:40:58;;;;;;;15.32;5.65;;;11.40;89.50;;;;;;5009888;28;20038;-73
2024/02/11 10:43:25;;;;;;;15.88;6.25;;;11.40;89.10;;;;;;5004260;28;20406;-74
2024/02/11 10:45:51;;;;;;;14.88;7.18;;;11.60;89.20;;;;;;5006110;28;20028;-73
2024/02/11 10:48:19;;;;;;;17.65;6.28;;;11.60;89.10;;;;;;5008469;28;20466;-74
2024/02/11 10:50:55;;;;;;;16.27;5.15;;;11.90;89.00;;;;;;4998459;28;20602;-74
2024/02/11 10:53:23;;;;;;;11.63;5.00;;;12.10;88.20;;;;;;5009203;28;20018;-75
2024/02/11 10:55:50;;;;;;;13.77;4.95;;;12.30;87.20;;;;;;5000222;28;20030;-73
2024/02/11 10:58:18;;;;;;;12.98;5.43;;;12.60;86.90;;;;;;5009122;28;20026;-74
2024/02/11 11:00:47;;;;;;;11.73;4.60;;;12.60;85.20;;;;;;4993821;28;20056;-77
2024/02/11 11:03:16;;;;;;;13.85;5.07;;;12.50;84.90;;;;;;5000374;28;20493;-74
2024/02/11 11:05:43;;;;;;;10.48;4.60;;;12.30;85.40;;;;;;4998762;28;20057;-76
2024/02/11 11:08:10;;;;;;;13.35;4.22;;;12.10;85.70;;;;;;4991630;28;20110;-75
2024/02/11 11:10:36;;;;;;;15.65;4.68;;;12.00;86.10;;;;;;4993893;28;20050;-75
2024/02/11 11:13:02;;;;;;;17.38;8.00;;;11.80;86.90;;;;;;4992381;28;20029;-75
2024/02/11 11:15:32;;;;;;;18.30;9.75;;;11.70;87.70;;;;;;4992374;28;20109;-75
2024/02/11 11:18:01;;;;;;;25.27;15.32;;;11.90;87.70;;;;;;4991633;28;20026;-74
2024/02/11 11:20:27;;;;;;;52.53;30.52;;;11.90;87.40;;;;;;4987981;28;20556;-76
2024/02/11 11:22:56;;;;;;;22.65;11.20;;;12.10;87.40;;;;;;4996974;28;20026;-74
2024/02/11 11:25:25;;;;;;;21.63;10.00;;;12.10;86.70;;;;;;4989209;28;20105;-75
2024/02/11 11:27:50;;;;;;;20.77;11.93;;;12.20;86.60;;;;;;4992955;28;20037;-74
2024/02/11 11:30:17;;;;;;;18.27;6.85;;;12.10;86.30;;;;;;4994513;28;20137;-74
2024/02/11 11:32:48;;;;;;;13.15;4.65;;;12.10;86.20;;;;;;4993415;28;20470;-77
2024/02/11 11:35:16;;;;;;;12.27;3.50;;;12.00;86.90;;;;;;4993472;28;20383;-74
2024/02/11 11:37:43;;;;;;;9.93;3.25;;;11.90;87.70;;;;;;4992089;28;20022;-78
2024/02/11 11:40:10;;;;;;;9.43;3.20;;;11.70;88.80;;;;;;4992551;28;20447;-74
2024/02/11 11:42:35;;;;;;;9.73;4.07;;;11.70;89.50;;;;;;5007219;28;20026;-75
2024/02/11 11:45:08;;;;;;;9.30;3.63;;;11.70;90.30;;;;;;4987415;28;20040;-74
2024/02/11 11:47:37;;;;;;;9.43;3.72;;;11.90;90.70;;;;;;4992492;28;20030;-74
2024/02/11 11:50:06;;;;;;;9.23;3.50;;;12.10;90.70;;;;;;4993756;28;20030;-75
2024/02/11 11:52:35;;;;;;;10.98;4.05;;;12.20;90.20;;;;;;5008306;28;20418;-74
2024/02/11 11:55:05;;;;;;;10.15;4.45;;;12.40;90.00;;;;;;4997815;28;20036;-73
2024/02/11 11:57:31;;;;;;;13.52;4.80;;;12.40;89.40;;;;;;5002762;28;20340;-73
2024/02/11 11:59:58;;;;;;;11.43;3.75;;;12.60;89.00;;;;;;5005735;28;20034;-73
2024/02/11 12:02:27;;;;;;;11.38;4.07;;;12.60;88.50;;;;;;5006005;28;20018;-73
2024/02/11 12:04:53;;;;;;;10.73;4.45;;;12.60;88.40;;;;;;5003361;28;20041;-73
2024/02/11 12:07:21;;;;;;;11.60;4.15;;;12.60;88.40;;;;;;4990487;28;20033;-75
2024/02/11 12:09:49;;;;;;;14.90;5.47;;;12.60;88.30;;;;;;4994481;28;20529;-75
2024/02/11 12:12:14;;;;;;;10.93;4.65;;;12.60;87.60;;;;;;4994102;28;20026;-74
2024/02/11 12:14:40;;;;;;;10.55;4.57;;;12.60;87.60;;;;;;4996225;28;20040;-73
2024/02/11 12:17:09;;;;;;;11.48;4.25;;;12.60;87.00;;;;;;4991092;28;20034;-76
2024/02/11 12:19:37;;;;;;;13.40;4.50;;;12.60;86.60;;;;;;4991888;28;20081;-75
2024/02/11 12:22:04;;;;;;;13.45;4.63;;;12.60;86.30;;;;;;4994114;28;20021;-74
2024/02/11 12:24:29;;;;;;;12.07;4.25;;;12.50;86.30;;;;;;4992003;28;20045;-73
2024/02/11 12:26:58;;;;;;;12.27;4.20;;;12.50;86.60;;;;;;4991514;28;20069;-75
2024/02/11 12:29:24;;;;;;;15.20;4.57;;;12.50;86.40;;;;;;4989158;28;21054;-74
2024/02/11 12:31:51;;;;;;;11.02;4.55;;;12.60;86.50;;;;;;4991170;28;20122;-73
2024/02/11 12:34:17;;;;;;;10.13;3.95;;;12.80;87.00;;;;;;4986556;28;20140;-76
2024/02/11 12:36:43;;;;;;;11.88;4.20;;;13.00;86.00;;;;;;4992071;28;20066;-74
2024/02/11 12:39:10;;;;;;;12.23;4.53;;;13.10;85.50;;;;;;4986453;28;20077;-74